Terminal Aerodrome Forecast
Issued by NWS Cleveland, OH

Home | Current Version | Previous Version | Text Only | Print | Product List | Glossary On
Versions: 1 2 3 4 5 6 7 8 9 10 11 12 13 14 15 16
000
FTUS41 KCLE 280900 AAA
TAFYNG
TAF AMD
KYNG 280912Z 2809/2906 32005KT P6SM SCT050
     FM281400 32005KT P6SM SCT025
      TEMPO 2814/2816 BKN025
     FM281600 32007KT P6SM BKN040
     FM282300 VRB03KT P6SM SCT060=

USA.gov is the U.S. government's official web portal to all federal, state and local government web resources and services.